createdAt,value
2023-01-29T00:00:12.574Z,97.66
2023-01-29T00:02:42.687Z,97.81
2023-01-29T00:05:25.997Z,97.95
2023-01-29T00:07:54.530Z,97.71
2023-01-29T00:10:22.858Z,98.06
2023-01-29T00:12:51.886Z,98.19
2023-01-29T00:15:18.644Z,98.44
2023-01-29T00:17:45.844Z,98.76
2023-01-29T00:20:12.534Z,98.77
2023-01-29T00:22:38.906Z,98.69
2023-01-29T00:25:05.807Z,98.67
2023-01-29T00:27:41.581Z,99.02
2023-01-29T00:30:26.472Z,99.25
2023-01-29T00:32:56.845Z,99.22
2023-01-29T00:35:26.085Z,99.65
2023-01-29T00:37:52.478Z,99.48
2023-01-29T00:40:28.522Z,99.82
2023-01-29T00:43:13.669Z,100.00
2023-01-29T00:45:43.518Z,100.00
2023-01-29T00:48:13.347Z,100.00
2023-01-29T00:50:39.682Z,100.00
2023-01-29T00:53:11.011Z,99.99
2023-01-29T00:55:37.401Z,100.00
2023-01-29T00:58:03.858Z,100.00
2023-01-29T01:00:30.658Z,100.00
2023-01-29T01:03:06.521Z,100.00
2023-01-29T01:05:38.455Z,100.00
2023-01-29T01:08:25.171Z,100.00
2023-01-29T01:11:01.590Z,100.00
2023-01-29T01:13:28.224Z,100.00
2023-01-29T01:15:54.692Z,100.00
2023-01-29T01:18:30.455Z,100.00
2023-01-29T01:20:58.164Z,100.00
2023-01-29T01:23:33.799Z,100.00
2023-01-29T01:26:00.930Z,100.00
2023-01-29T01:28:30.876Z,100.00
2023-01-29T01:30:57.332Z,100.00
2023-01-29T01:33:24.274Z,100.00
2023-01-29T01:35:55.783Z,100.00
2023-01-29T01:38:22.190Z,99.92
2023-01-29T01:40:48.587Z,100.00
2023-01-29T01:43:15.268Z,100.00
2023-01-29T01:45:49.056Z,100.00
2023-01-29T01:48:28.200Z,100.00
2023-01-29T01:51:10.235Z,99.60
2023-01-29T01:53:44.770Z,99.87
2023-01-29T01:56:16.222Z,99.48
2023-01-29T01:58:56.385Z,99.64
2023-01-29T02:01:30.042Z,99.74
2023-01-29T02:04:26.177Z,99.63
2023-01-29T02:07:19.896Z,99.45
2023-01-29T02:10:00.648Z,99.51
2023-01-29T02:12:35.418Z,99.36
2023-01-29T02:15:02.263Z,99.23
2023-01-29T02:17:28.788Z,98.96
2023-01-29T02:20:19.727Z,99.25
2023-01-29T02:23:02.634Z,99.40
2023-01-29T02:25:39.383Z,99.54
2023-01-29T02:28:32.964Z,99.47
2023-01-29T02:31:53.603Z,99.14
2023-01-29T02:35:04.118Z,99.12
2023-01-29T02:37:39.191Z,98.70
2023-01-29T02:40:15.915Z,99.21
2023-01-29T02:43:03.329Z,98.73
2023-01-29T02:45:43.469Z,99.09
2023-01-29T02:48:16.023Z,99.32
2023-01-29T02:51:02.116Z,99.25
2023-01-29T02:53:56.990Z,99.13
2023-01-29T02:56:38.933Z,99.52
2023-01-29T02:59:18.436Z,99.56
2023-01-29T03:02:08.310Z,99.64
2023-01-29T03:04:45.089Z,99.64
2023-01-29T03:07:22.891Z,99.95
2023-01-29T03:09:53.727Z,99.65
2023-01-29T03:12:34.982Z,99.99
2023-01-29T03:15:30.213Z,99.89
2023-01-29T03:18:20.510Z,99.85
2023-01-29T03:20:57.399Z,100.00
2023-01-29T03:23:50.166Z,100.00
2023-01-29T03:26:43.414Z,99.90
2023-01-29T03:29:35.341Z,100.00
2023-01-29T03:32:07.375Z,100.00
2023-01-29T03:34:57.778Z,100.00
2023-01-29T03:37:38.726Z,100.00
2023-01-29T03:40:24.500Z,100.00
2023-01-29T03:43:05.955Z,100.00
2023-01-29T03:45:38.836Z,100.00
2023-01-29T03:48:29.101Z,100.00
2023-01-29T03:51:09.175Z,100.00
2023-01-29T03:53:50.310Z,100.00
2023-01-29T03:56:52.731Z,100.00
2023-01-29T03:59:42.463Z,100.00
2023-01-29T04:02:13.704Z,100.00
2023-01-29T04:04:45.186Z,100.00
2023-01-29T04:07:25.542Z,100.00
2023-01-29T04:10:05.460Z,100.00
2023-01-29T04:12:41.836Z,100.00
2023-01-29T04:15:17.516Z,100.00
2023-01-29T04:17:50.661Z,100.00
2023-01-29T04:20:17.879Z,100.00
2023-01-29T04:22:57.135Z,100.00
2023-01-29T04:25:35.825Z,100.00
2023-01-29T04:28:36.841Z,100.00
2023-01-29T04:31:13.426Z,100.00
2023-01-29T04:34:20.550Z,100.00
2023-01-29T04:37:16.595Z,100.00
2023-01-29T04:40:06.899Z,100.00
2023-01-29T04:42:44.377Z,100.00
2023-01-29T04:45:20.547Z,100.00
2023-01-29T04:48:11.485Z,100.00
2023-01-29T04:51:02.481Z,100.00
2023-01-29T04:54:10.958Z,100.00
2023-01-29T04:57:12.259Z,100.00
2023-01-29T05:00:08.675Z,100.00
2023-01-29T05:02:39.288Z,100.00
2023-01-29T05:05:10.925Z,100.00
2023-01-29T05:07:41.657Z,100.00
2023-01-29T05:10:13.828Z,100.00
2023-01-29T05:12:51.110Z,100.00
2023-01-29T05:15:45.558Z,99.96
2023-01-29T05:18:18.406Z,99.68
2023-01-29T05:20:48.411Z,99.70
2023-01-29T05:23:30.484Z,99.78
2023-01-29T05:26:03.100Z,99.76
2023-01-29T05:28:29.548Z,99.11
2023-01-29T05:30:56.966Z,99.23
2023-01-29T05:33:31.525Z,99.00
2023-01-29T05:36:00.717Z,99.23
2023-01-29T05:38:36.025Z,99.30
2023-01-29T05:41:02.421Z,99.21
2023-01-29T05:43:31.126Z,98.96
2023-01-29T05:46:00.773Z,98.88
2023-01-29T05:48:40.062Z,99.19
2023-01-29T05:51:06.574Z,98.56
2023-01-29T05:53:33.990Z,99.07
2023-01-29T05:56:09.377Z,98.47
2023-01-29T05:58:36.805Z,98.10
2023-01-29T06:01:23.354Z,98.15
2023-01-29T06:03:49.793Z,98.32
2023-01-29T06:06:16.831Z,98.23
2023-01-29T06:08:59.757Z,98.15
2023-01-29T06:11:28.847Z,97.79
2023-01-29T06:13:55.215Z,98.00
2023-01-29T06:16:21.629Z,97.74
2023-01-29T06:21:31.994Z,98.36
2023-01-29T06:24:01.220Z,98.54
2023-01-29T06:26:27.675Z,98.10
2023-01-29T06:28:56.909Z,97.79
2023-01-29T06:31:38.218Z,97.48
2023-01-29T06:34:08.584Z,97.19
2023-01-29T06:36:38.176Z,97.34
2023-01-29T06:39:04.689Z,96.65
2023-01-29T06:41:31.081Z,96.54
2023-01-29T06:43:57.437Z,96.43
2023-01-29T06:46:26.247Z,96.52
2023-01-29T06:48:59.278Z,97.11
2023-01-29T06:51:31.864Z,96.33
2023-01-29T06:53:58.283Z,96.20
2023-01-29T06:56:24.776Z,96.31
2023-01-29T06:58:55.844Z,96.64
2023-01-29T07:01:35.031Z,96.35
2023-01-29T07:04:05.500Z,96.12
2023-01-29T07:06:35.043Z,95.71
2023-01-29T07:09:05.262Z,95.88
2023-01-29T07:11:32.221Z,96.12
2023-01-29T07:14:03.622Z,95.72
2023-01-29T07:16:32.987Z,95.96
2023-01-29T07:18:59.425Z,95.54
2023-01-29T07:21:36.494Z,96.10
2023-01-29T07:24:04.183Z,96.33
2023-01-29T07:26:30.548Z,95.53
2023-01-29T07:28:59.763Z,96.07
2023-01-29T07:31:27.821Z,96.41
2023-01-29T07:33:54.605Z,96.03
2023-01-29T07:36:24.297Z,96.02
2023-01-29T07:38:52.400Z,95.95
2023-01-29T07:41:24.845Z,96.43
2023-01-29T07:43:51.249Z,96.77
2023-01-29T07:49:03.891Z,96.60
2023-01-29T07:51:30.292Z,96.52
2023-01-29T07:53:56.690Z,97.19
2023-01-29T07:56:28.584Z,95.97
2023-01-29T07:58:54.982Z,96.63
2023-01-29T08:01:24.627Z,96.37
2023-01-29T08:03:57.067Z,96.82
2023-01-29T08:06:23.464Z,96.29
2023-01-29T08:08:53.812Z,96.73
2023-01-29T08:11:23.569Z,95.95
2023-01-29T08:13:55.009Z,96.03
2023-01-29T08:16:24.423Z,96.56
2023-01-29T08:18:50.891Z,95.55
2023-01-29T08:21:25.664Z,95.46
2023-01-29T08:23:51.980Z,94.68
2023-01-29T08:26:23.770Z,94.64
2023-01-29T08:28:53.488Z,94.35
2023-01-29T08:31:24.534Z,94.23
2023-01-29T08:33:55.259Z,94.07
2023-01-29T08:36:29.109Z,93.95
2023-01-29T08:38:58.316Z,93.39
2023-01-29T08:41:24.789Z,94.06
2023-01-29T08:44:02.210Z,93.95
2023-01-29T08:46:31.661Z,93.46
2023-01-29T08:49:05.805Z,93.40
2023-01-29T08:54:18.191Z,92.76
2023-01-29T08:56:47.530Z,92.45
2023-01-29T08:59:13.992Z,92.22
2023-01-29T09:01:43.548Z,92.06
2023-01-29T09:04:13.016Z,92.17
2023-01-29T09:06:39.852Z,91.85
2023-01-29T09:09:14.549Z,91.08
2023-01-29T09:11:41.012Z,91.02
2023-01-29T09:14:16.166Z,90.62
2023-01-29T09:16:43.148Z,90.76
2023-01-29T09:19:13.001Z,90.43
2023-01-29T09:21:42.116Z,90.20
2023-01-29T09:24:08.611Z,90.19
2023-01-29T09:26:43.637Z,89.68
2023-01-29T09:29:10.754Z,89.96
2023-01-29T09:31:40.496Z,89.60
2023-01-29T09:34:10.151Z,89.23
2023-01-29T09:36:39.552Z,89.14
2023-01-29T09:39:05.996Z,89.57
2023-01-29T09:42:23.502Z,89.10
2023-01-29T09:45:15.933Z,89.16
2023-01-29T09:47:47.637Z,89.39
2023-01-29T09:50:45.717Z,88.42
2023-01-29T09:53:21.575Z,88.80
2023-01-29T09:56:20.441Z,88.24
2023-01-29T09:58:47.417Z,88.26
2023-01-29T10:05:07.242Z,88.18
2023-01-29T10:08:11.277Z,88.00
2023-01-29T10:10:50.984Z,87.80
2023-01-29T10:13:37.130Z,88.14
2023-01-29T10:16:12.621Z,87.66
2023-01-29T10:18:57.149Z,87.75
2023-01-29T10:21:49.699Z,87.50
2023-01-29T10:24:38.469Z,87.71
2023-01-29T10:27:19.054Z,87.83
2023-01-29T10:29:49.158Z,88.25
2023-01-29T10:32:23.437Z,88.24
2023-01-29T10:35:18.125Z,88.68
2023-01-29T10:37:52.503Z,88.35
2023-01-29T10:40:40.121Z,88.78
2023-01-29T10:43:39.761Z,88.71
2023-01-29T10:46:41.677Z,88.34
2023-01-29T10:49:35.251Z,88.57
2023-01-29T10:52:11.375Z,88.72
2023-01-29T10:54:55.865Z,87.94
2023-01-29T10:58:01.737Z,88.16
2023-01-29T11:00:51.571Z,87.88
2023-01-29T11:03:32.326Z,88.14
2023-01-29T11:06:20.225Z,87.71
2023-01-29T11:09:25.473Z,88.22
2023-01-29T11:12:09.473Z,88.36
2023-01-29T11:14:54.560Z,87.39
2023-01-29T11:17:27.197Z,88.08
2023-01-29T11:19:58.066Z,88.21
2023-01-29T11:22:28.705Z,88.21
2023-01-29T11:25:16.150Z,88.29
2023-01-29T11:27:52.341Z,88.47
2023-01-29T11:30:39.277Z,88.47
2023-01-29T11:33:17.736Z,88.77
2023-01-29T11:41:22.469Z,89.07
2023-01-29T11:43:48.847Z,89.30
2023-01-29T11:46:16.987Z,89.50
2023-01-29T11:49:05.810Z,89.56
2023-01-29T11:51:40.873Z,89.97
2023-01-29T11:54:21.509Z,90.08
2023-01-29T11:56:51.662Z,90.20
2023-01-29T11:59:45.390Z,90.97
2023-01-29T12:02:45.963Z,91.20
2023-01-29T12:05:23.758Z,91.72
2023-01-29T12:07:56.405Z,91.42
2023-01-29T12:10:39.582Z,92.22
2023-01-29T12:13:31.949Z,92.13
2023-01-29T12:16:40.471Z,92.41
2023-01-29T12:19:41.206Z,93.00
2023-01-29T12:22:17.739Z,93.06
2023-01-29T12:25:09.167Z,93.04
2023-01-29T12:28:09.474Z,93.41
2023-01-29T12:31:10.247Z,93.17
2023-01-29T12:33:55.756Z,93.38
2023-01-29T12:39:42.581Z,92.97
2023-01-29T12:42:17.732Z,93.35
2023-01-29T12:45:01.047Z,93.43
2023-01-29T12:48:02.157Z,92.84
2023-01-29T12:50:33.955Z,92.94
2023-01-29T12:53:03.348Z,92.92
2023-01-29T12:56:05.051Z,93.64
2023-01-29T12:58:38.633Z,93.38
2023-01-29T13:01:15.324Z,93.37
2023-01-29T13:07:02.785Z,93.59
2023-01-29T13:09:33.237Z,94.18
2023-01-29T13:12:05.529Z,94.47
2023-01-29T13:15:01.117Z,94.37
2023-01-29T13:17:40.300Z,94.26
2023-01-29T13:20:35.588Z,94.60
2023-01-29T13:23:16.537Z,94.67
2023-01-29T13:25:43.439Z,94.59
2023-01-29T13:28:22.375Z,94.16
2023-01-29T13:31:26.105Z,94.57
2023-01-29T13:34:17.105Z,93.39
2023-01-29T13:36:48.954Z,93.48
2023-01-29T13:39:29.699Z,93.48
2023-01-29T13:42:00.764Z,93.47
2023-01-29T13:44:34.548Z,93.43
2023-01-29T13:47:10.482Z,92.88
2023-01-29T13:49:45.706Z,93.67
2023-01-29T13:52:25.647Z,93.42
2023-01-29T13:55:00.215Z,93.47
2023-01-29T13:57:45.014Z,94.13
2023-01-29T14:00:33.039Z,94.03
2023-01-29T14:03:05.577Z,93.16
2023-01-29T14:05:41.681Z,93.57
2023-01-29T14:08:30.440Z,93.82
2023-01-29T14:11:35.175Z,93.46
2023-01-29T14:14:04.181Z,94.47
2023-01-29T14:16:38.221Z,94.64
2023-01-29T14:19:18.221Z,94.27
2023-01-29T14:21:50.143Z,94.26
2023-01-29T14:24:18.793Z,94.90
2023-01-29T14:26:54.093Z,94.72
2023-01-29T14:29:34.843Z,94.16
2023-01-29T14:32:09.862Z,94.38
2023-01-29T14:34:51.424Z,94.65
2023-01-29T14:37:30.957Z,94.56
2023-01-29T14:40:25.144Z,94.77
2023-01-29T14:43:01.472Z,94.35
2023-01-29T14:45:27.850Z,94.35
2023-01-29T14:48:02.625Z,95.35
2023-01-29T14:50:28.934Z,95.27
2023-01-29T14:53:19.863Z,94.99
2023-01-29T14:56:10.545Z,94.77
2023-01-29T14:58:45.713Z,95.14
2023-01-29T15:01:37.834Z,95.49
2023-01-29T15:04:24.570Z,95.40
2023-01-29T15:07:06.013Z,96.02
2023-01-29T15:09:42.345Z,95.69
2023-01-29T15:12:20.927Z,96.14
2023-01-29T15:15:13.877Z,95.77
2023-01-29T15:18:19.929Z,95.35
2023-01-29T15:20:46.761Z,95.31
2023-01-29T15:23:33.761Z,95.62
2023-01-29T15:26:05.204Z,95.59
2023-01-29T15:28:36.155Z,95.77
2023-01-29T15:31:22.461Z,96.37
2023-01-29T15:33:54.949Z,96.51
2023-01-29T15:36:31.753Z,96.11
2023-01-29T15:39:13.096Z,96.37
2023-01-29T15:41:39.678Z,96.74
2023-01-29T15:44:35.360Z,97.24
2023-01-29T15:47:02.298Z,96.79
2023-01-29T15:49:39.668Z,97.08
2023-01-29T15:52:15.363Z,97.52
2023-01-29T15:54:41.998Z,97.46
2023-01-29T15:57:21.185Z,98.32
2023-01-29T15:59:54.170Z,98.15
2023-01-29T16:02:41.250Z,98.25
2023-01-29T16:07:56.175Z,98.54
2023-01-29T16:10:32.258Z,98.62
2023-01-29T16:13:05.709Z,98.75
2023-01-29T16:15:53.290Z,98.84
2023-01-29T16:18:36.855Z,100.00
2023-01-29T16:21:15.745Z,100.00
2023-01-29T16:23:47.927Z,100.00
2023-01-29T16:26:52.361Z,100.00
2023-01-29T16:29:24.779Z,100.00
2023-01-29T16:32:02.650Z,100.00
2023-01-29T16:34:32.819Z,100.00
2023-01-29T16:37:05.283Z,100.00
2023-01-29T16:39:40.789Z,100.00
2023-01-29T16:42:10.597Z,100.00
2023-01-29T16:44:52.739Z,100.00
2023-01-29T16:48:10.759Z,100.00
2023-01-29T16:50:53.992Z,100.00
2023-01-29T16:53:26.175Z,100.00
2023-01-29T16:58:52.064Z,100.00
2023-01-29T17:01:19.593Z,100.00
2023-01-29T17:04:10.991Z,100.00
2023-01-29T17:06:44.811Z,100.00
2023-01-29T17:09:38.089Z,100.00
2023-01-29T17:12:24.552Z,100.00
2023-01-29T17:15:07.243Z,100.00
2023-01-29T17:17:37.064Z,100.00
2023-01-29T17:20:16.955Z,100.00
2023-01-29T17:22:45.027Z,100.00
2023-01-29T17:25:14.797Z,100.00
2023-01-29T17:27:53.026Z,100.00
2023-01-29T17:30:21.916Z,100.00
2023-01-29T17:32:51.204Z,100.00
2023-01-29T17:35:21.044Z,100.00
2023-01-29T17:37:53.546Z,100.00
2023-01-29T17:40:33.860Z,100.00
2023-01-29T17:43:03.006Z,100.00
2023-01-29T17:45:29.644Z,100.00
2023-01-29T17:47:59.230Z,100.00
2023-01-29T17:50:28.462Z,100.00
2023-01-29T17:52:54.844Z,100.00
2023-01-29T17:55:30.523Z,100.00
2023-01-29T17:58:03.322Z,100.00
2023-01-29T18:00:32.591Z,100.00
2023-01-29T18:03:02.298Z,100.00
2023-01-29T18:05:29.855Z,100.00
2023-01-29T18:08:02.787Z,100.00
2023-01-29T18:10:32.151Z,100.00
2023-01-29T18:12:58.717Z,100.00
2023-01-29T18:15:25.444Z,100.00
2023-01-29T18:17:56.283Z,100.00
2023-01-29T18:20:25.621Z,100.00
2023-01-29T18:22:52.953Z,100.00
2023-01-29T18:25:20.863Z,100.00
2023-01-29T18:27:51.292Z,100.00
2023-01-29T18:30:22.756Z,100.00
2023-01-29T18:32:50.252Z,100.00
2023-01-29T18:35:25.277Z,100.00
2023-01-29T18:37:52.013Z,100.00
2023-01-29T18:40:18.737Z,100.00
2023-01-29T18:42:48.341Z,100.00
2023-01-29T18:45:18.697Z,100.00
2023-01-29T18:47:52.661Z,100.00
2023-01-29T18:50:19.741Z,100.00
2023-01-29T18:52:48.953Z,100.00
2023-01-29T18:55:22.516Z,100.00
2023-01-29T18:58:27.779Z,100.00
2023-01-29T19:00:39.724Z,100.00
2023-01-29T19:03:06.192Z,100.00
2023-01-29T19:05:33.954Z,100.00
2023-01-29T19:08:04.083Z,100.00
2023-01-29T19:10:30.533Z,100.00
2023-01-29T19:12:56.943Z,100.00
2023-01-29T19:15:27.809Z,100.00
2023-01-29T19:17:54.725Z,100.00
2023-01-29T19:20:21.232Z,100.00
2023-01-29T19:22:56.783Z,100.00
2023-01-29T19:25:23.546Z,100.00
2023-01-29T19:27:59.541Z,100.00
2023-01-29T19:30:25.985Z,100.00
2023-01-29T19:33:02.051Z,100.00
2023-01-29T19:35:28.863Z,100.00
2023-01-29T19:38:04.157Z,100.00
2023-01-29T19:40:30.610Z,100.00
2023-01-29T19:43:00.241Z,100.00
2023-01-29T19:45:49.945Z,100.00
2023-01-29T19:48:26.300Z,100.00
2023-01-29T19:50:54.959Z,100.00
2023-01-29T19:53:23.687Z,100.00
2023-01-29T19:56:08.704Z,100.00
2023-01-29T19:58:38.054Z,100.00
2023-01-29T20:01:20.543Z,100.00
2023-01-29T20:03:53.045Z,100.00
2023-01-29T20:06:25.073Z,100.00
2023-01-29T20:09:06.222Z,100.00
2023-01-29T20:11:35.142Z,100.00
2023-01-29T20:14:03.985Z,100.00
2023-01-29T20:16:30.563Z,100.00
2023-01-29T20:19:13.447Z,100.00
2023-01-29T20:21:45.439Z,100.00
2023-01-29T20:24:14.580Z,100.00
2023-01-29T20:26:44.205Z,100.00
2023-01-29T20:29:13.596Z,100.00
2023-01-29T20:31:40.177Z,100.00
2023-01-29T20:34:09.411Z,100.00
2023-01-29T20:36:39.015Z,100.00
2023-01-29T20:39:13.057Z,100.00
2023-01-29T20:41:42.205Z,100.00
2023-01-29T20:44:16.311Z,100.00
2023-01-29T20:46:46.705Z,100.00
2023-01-29T20:49:19.306Z,100.00
2023-01-29T20:51:48.552Z,100.00
2023-01-29T20:54:22.698Z,100.00
2023-01-29T20:56:49.294Z,100.00
2023-01-29T20:59:16.303Z,100.00
2023-01-29T21:01:47.181Z,100.00
2023-01-29T21:04:13.660Z,100.00
2023-01-29T21:06:40.052Z,100.00
2023-01-29T21:09:10.781Z,100.00
2023-01-29T21:11:39.956Z,100.00
2023-01-29T21:14:10.167Z,100.00
2023-01-29T21:16:39.335Z,100.00
2023-01-29T21:19:06.411Z,100.00
2023-01-29T21:21:38.590Z,100.00
2023-01-29T21:24:05.383Z,100.00
2023-01-29T21:26:32.370Z,100.00
2023-01-29T21:29:06.019Z,100.00
2023-01-29T21:31:33.559Z,100.00
2023-01-29T21:34:08.511Z,100.00
2023-01-29T21:36:36.072Z,100.00
2023-01-29T21:39:16.448Z,100.00
2023-01-29T21:42:03.120Z,100.00
2023-01-29T21:44:36.708Z,100.00
2023-01-29T21:47:12.323Z,100.00
2023-01-29T21:49:43.374Z,100.00
2023-01-29T21:52:14.911Z,100.00
2023-01-29T21:54:41.666Z,100.00
2023-01-29T21:57:31.605Z,100.00
2023-01-29T22:00:04.813Z,100.00
2023-01-29T22:02:39.331Z,100.00
2023-01-29T22:05:18.607Z,100.00
2023-01-29T22:07:52.044Z,100.00
2023-01-29T22:10:30.598Z,100.00
2023-01-29T22:13:06.413Z,100.00
2023-01-29T22:15:32.812Z,100.00
2023-01-29T22:17:59.328Z,100.00
2023-01-29T22:20:30.566Z,100.00
2023-01-29T22:22:59.323Z,100.00
2023-01-29T22:28:23.496Z,100.00
2023-01-29T22:30:57.313Z,100.00
2023-01-29T22:33:23.838Z,100.00
2023-01-29T22:35:59.898Z,100.00
2023-01-29T22:38:26.354Z,100.00
2023-01-29T22:40:56.302Z,100.00
2023-01-29T22:43:29.197Z,100.00
2023-01-29T22:46:03.959Z,100.00
2023-01-29T22:48:33.382Z,100.00
2023-01-29T22:51:11.913Z,100.00
2023-01-29T22:56:31.927Z,100.00
2023-01-29T22:59:00.362Z,100.00
2023-01-29T23:01:33.657Z,100.00
2023-01-29T23:04:00.009Z,100.00
2023-01-29T23:06:26.494Z,100.00
2023-01-29T23:08:55.874Z,100.00
2023-01-29T23:11:25.147Z,100.00
2023-01-29T23:13:55.583Z,100.00
2023-01-29T23:16:28.338Z,100.00
2023-01-29T23:18:57.956Z,100.00
2023-01-29T23:21:33.280Z,100.00
2023-01-29T23:24:11.876Z,100.00
2023-01-29T23:26:57.067Z,100.00
2023-01-29T23:29:27.896Z,100.00
2023-01-29T23:31:57.096Z,100.00
2023-01-29T23:37:08.816Z,100.00
2023-01-29T23:39:35.202Z,100.00
2023-01-29T23:42:02.135Z,100.00
2023-01-29T23:44:29.042Z,100.00
2023-01-29T23:46:59.050Z,100.00
2023-01-29T23:49:25.921Z,100.00
2023-01-29T23:51:52.866Z,100.00
2023-01-29T23:54:28.527Z,100.00
2023-01-29T23:56:54.953Z,100.00
2023-01-29T23:59:29.209Z,100.00
